createdAt,value
2022-09-22T00:01:05.526Z,91.66
2022-09-22T00:03:36.920Z,92.02
2022-09-22T00:06:05.117Z,92.00
2022-09-22T00:08:33.465Z,91.29
2022-09-22T00:11:18.604Z,91.22
2022-09-22T00:13:51.190Z,91.65
2022-09-22T00:16:21.019Z,91.08
2022-09-22T00:18:47.659Z,91.55
2022-09-22T00:21:17.256Z,90.68
2022-09-22T00:23:44.188Z,91.46
2022-09-22T00:26:14.219Z,91.52
2022-09-22T00:28:41.685Z,91.64
2022-09-22T00:31:14.142Z,91.93
2022-09-22T00:33:41.436Z,92.81
2022-09-22T00:36:09.374Z,92.00
2022-09-22T00:38:38.299Z,91.69
2022-09-22T00:41:06.169Z,92.65
2022-09-22T00:43:37.651Z,92.49
2022-09-22T00:46:24.220Z,92.59
2022-09-22T00:49:05.404Z,91.79
2022-09-22T00:51:35.222Z,91.84
2022-09-22T00:54:06.003Z,91.99
2022-09-22T00:56:49.963Z,92.68
2022-09-22T00:59:19.251Z,92.67
2022-09-22T01:01:45.976Z,92.72
2022-09-22T01:04:12.842Z,92.73
2022-09-22T01:06:40.516Z,92.83
2022-09-22T01:09:08.579Z,92.87
2022-09-22T01:11:37.990Z,93.14
2022-09-22T01:14:13.398Z,93.36
2022-09-22T01:16:42.991Z,93.36
2022-09-22T01:19:51.622Z,92.58
2022-09-22T01:22:55.858Z,93.50
2022-09-22T01:25:25.273Z,92.84
2022-09-22T01:28:20.302Z,92.55
2022-09-22T01:31:00.363Z,92.32
2022-09-22T01:33:36.049Z,92.97
2022-09-22T01:36:21.168Z,92.91
2022-09-22T01:39:04.628Z,93.01
2022-09-22T01:41:45.007Z,92.56
2022-09-22T01:44:28.693Z,91.88
2022-09-22T01:47:15.216Z,92.99
2022-09-22T01:49:47.912Z,93.33
2022-09-22T01:52:23.442Z,92.92
2022-09-22T01:55:03.042Z,92.34
2022-09-22T01:57:40.529Z,92.18
2022-09-22T02:00:10.697Z,92.23
2022-09-22T02:02:50.562Z,91.99
2022-09-22T02:05:46.625Z,92.06
2022-09-22T02:08:28.199Z,92.79
2022-09-22T02:10:58.842Z,92.97
2022-09-22T02:13:26.030Z,93.14
2022-09-22T02:16:01.711Z,92.56
2022-09-22T02:18:37.302Z,92.55
2022-09-22T02:21:04.898Z,93.02
2022-09-22T02:23:32.199Z,92.92
2022-09-22T02:26:01.931Z,92.98
2022-09-22T02:28:29.163Z,93.55
2022-09-22T02:31:18.490Z,93.84
2022-09-22T02:33:43.301Z,93.40
2022-09-22T02:36:25.073Z,92.92
2022-09-22T02:39:05.733Z,93.10
2022-09-22T02:41:41.236Z,92.48
2022-09-22T02:44:17.816Z,92.61
2022-09-22T02:47:08.756Z,92.38
2022-09-22T02:49:35.929Z,92.72
2022-09-22T02:52:07.934Z,92.10
2022-09-22T02:54:34.495Z,92.70
2022-09-22T02:57:01.008Z,91.74
2022-09-22T02:59:27.557Z,91.83
2022-09-22T03:01:55.799Z,91.66
2022-09-22T03:04:22.704Z,92.81
2022-09-22T03:06:49.330Z,92.49
2022-09-22T03:09:17.621Z,91.88
2022-09-22T03:11:44.495Z,91.72
2022-09-22T03:14:11.117Z,91.53
2022-09-22T03:16:37.718Z,91.57
2022-09-22T03:19:04.656Z,91.30
2022-09-22T03:21:31.217Z,91.71
2022-09-22T03:23:57.767Z,91.96
2022-09-22T03:26:24.484Z,92.88
2022-09-22T03:28:51.057Z,93.06
2022-09-22T03:31:17.664Z,93.00
2022-09-22T03:33:44.236Z,92.46
2022-09-22T03:36:10.812Z,92.38
2022-09-22T03:38:37.360Z,92.78
2022-09-22T03:41:04.128Z,91.55
2022-09-22T03:43:30.822Z,91.48
2022-09-22T03:45:58.614Z,92.38
2022-09-22T03:48:27.036Z,92.69
2022-09-22T03:50:53.648Z,93.06
2022-09-22T03:53:20.216Z,92.33
2022-09-22T03:55:46.926Z,92.74
2022-09-22T03:58:13.586Z,92.12
2022-09-22T04:00:40.109Z,91.74
2022-09-22T04:03:06.942Z,91.82
2022-09-22T04:05:33.500Z,92.12
2022-09-22T04:08:00.156Z,91.37
2022-09-22T04:10:26.934Z,91.02
2022-09-22T04:12:53.527Z,91.31
2022-09-22T04:15:20.102Z,91.51
2022-09-22T04:17:47.072Z,91.99
2022-09-22T04:20:13.697Z,92.71
2022-09-22T04:22:40.352Z,92.15
2022-09-22T04:25:07.781Z,92.13
2022-09-22T04:27:34.281Z,92.61
2022-09-22T04:30:01.510Z,92.44
2022-09-22T04:32:28.024Z,91.84
2022-09-22T04:34:54.663Z,92.21
2022-09-22T04:37:21.181Z,91.93
2022-09-22T04:39:47.747Z,92.35
2022-09-22T04:42:14.268Z,92.48
2022-09-22T04:44:40.937Z,92.58
2022-09-22T04:47:07.443Z,92.04
2022-09-22T04:49:34.017Z,92.39
2022-09-22T04:52:00.733Z,91.99
2022-09-22T04:54:27.307Z,91.85
2022-09-22T04:56:53.812Z,91.67
2022-09-22T04:59:20.546Z,92.09
2022-09-22T05:01:47.160Z,92.64
2022-09-22T05:04:13.842Z,91.79
2022-09-22T05:06:41.685Z,91.51
2022-09-22T05:09:08.282Z,92.01
2022-09-22T05:11:34.870Z,91.65
2022-09-22T05:14:02.156Z,91.92
2022-09-22T05:16:28.719Z,92.03
2022-09-22T05:18:55.828Z,92.21
2022-09-22T05:21:22.324Z,92.30
2022-09-22T05:23:48.943Z,92.60
2022-09-22T05:26:15.529Z,92.41
2022-09-22T05:28:42.886Z,92.50
2022-09-22T05:31:09.422Z,92.79
2022-09-22T05:33:36.823Z,93.45
2022-09-22T05:36:03.593Z,92.81
2022-09-22T05:38:30.163Z,92.65
2022-09-22T05:40:56.736Z,92.48
2022-09-22T05:43:23.277Z,92.28
2022-09-22T05:45:50.035Z,92.03
2022-09-22T05:48:16.724Z,93.01
2022-09-22T05:50:43.946Z,93.69
2022-09-22T05:53:11.365Z,93.08
2022-09-22T05:55:39.658Z,93.02
2022-09-22T05:58:09.136Z,93.49
2022-09-22T06:00:35.763Z,93.16
2022-09-22T06:03:02.510Z,92.55
2022-09-22T06:05:29.180Z,92.71
2022-09-22T06:08:01.745Z,93.71
2022-09-22T06:10:28.745Z,93.48
2022-09-22T06:13:00.206Z,93.47
2022-09-22T06:15:28.551Z,93.05
2022-09-22T06:17:56.207Z,93.76
2022-09-22T06:20:22.820Z,94.37
2022-09-22T06:22:49.500Z,94.30
2022-09-22T06:25:17.066Z,93.79
2022-09-22T06:27:44.055Z,94.11
2022-09-22T06:30:11.744Z,93.53
2022-09-22T06:32:43.797Z,94.36
2022-09-22T06:35:11.400Z,94.82
2022-09-22T06:37:38.639Z,94.59
2022-09-22T06:40:08.254Z,93.84
2022-09-22T06:42:35.610Z,94.21
2022-09-22T06:45:04.533Z,96.39
2022-09-22T06:47:32.899Z,95.19
2022-09-22T06:50:01.315Z,97.12
2022-09-22T06:52:28.963Z,95.71
2022-09-22T06:54:58.483Z,95.63
2022-09-22T06:57:30.400Z,96.48
2022-09-22T06:59:56.907Z,95.54
2022-09-22T07:02:29.466Z,95.68
2022-09-22T07:04:59.306Z,95.61
2022-09-22T07:07:28.753Z,96.11
2022-09-22T07:09:55.828Z,95.32
2022-09-22T07:12:22.455Z,95.25
2022-09-22T07:14:49.576Z,95.21
2022-09-22T07:17:20.252Z,95.74
2022-09-22T07:19:47.137Z,94.98
2022-09-22T07:22:19.129Z,94.59
2022-09-22T07:24:45.924Z,93.46
2022-09-22T07:27:20.367Z,92.84
2022-09-22T07:29:48.793Z,92.53
2022-09-22T07:32:15.618Z,92.74
2022-09-22T07:34:42.205Z,92.46
2022-09-22T07:37:11.289Z,91.17
2022-09-22T07:39:37.836Z,89.37
2022-09-22T07:42:04.613Z,89.09
2022-09-22T07:44:49.715Z,89.26
2022-09-22T07:47:36.257Z,88.41
2022-09-22T07:50:04.664Z,87.88
2022-09-22T07:52:31.287Z,88.86
2022-09-22T07:54:57.829Z,86.60
2022-09-22T07:57:24.395Z,85.54
2022-09-22T07:59:51.071Z,84.26
2022-09-22T08:02:17.631Z,86.70
2022-09-22T08:04:44.189Z,88.71
2022-09-22T08:07:10.748Z,87.94
2022-09-22T08:09:37.291Z,88.70
2022-09-22T08:12:04.063Z,89.86
2022-09-22T08:14:31.074Z,88.57
2022-09-22T08:16:57.616Z,87.83
2022-09-22T08:19:24.318Z,86.62
2022-09-22T08:21:52.887Z,85.35
2022-09-22T08:24:22.000Z,84.49
2022-09-22T08:26:53.013Z,84.73
2022-09-22T08:29:20.572Z,83.28
2022-09-22T08:31:47.660Z,84.10
2022-09-22T08:34:16.515Z,84.13
2022-09-22T08:36:47.005Z,84.10
2022-09-22T08:39:14.515Z,83.35
2022-09-22T08:42:07.984Z,81.78
2022-09-22T08:45:02.677Z,80.04
2022-09-22T08:47:55.705Z,77.66
2022-09-22T08:50:58.154Z,78.02
2022-09-22T08:53:26.866Z,77.42
2022-09-22T08:56:06.920Z,77.76
2022-09-22T08:58:50.390Z,78.28
2022-09-22T09:01:38.295Z,74.66
2022-09-22T09:04:13.850Z,71.00
2022-09-22T09:07:14.523Z,71.57
2022-09-22T09:10:06.078Z,70.35
2022-09-22T09:12:53.334Z,71.02
2022-09-22T09:15:39.247Z,69.44
2022-09-22T09:18:16.030Z,69.95
2022-09-22T09:20:47.945Z,68.00
2022-09-22T09:26:18.627Z,71.29
2022-09-22T09:28:53.857Z,70.78
2022-09-22T09:31:46.114Z,67.05
2022-09-22T09:34:18.014Z,66.52
2022-09-22T09:37:10.249Z,65.99
2022-09-22T09:39:39.531Z,66.18
2022-09-22T09:42:17.547Z,63.02
2022-09-22T09:44:45.194Z,62.33
2022-09-22T09:47:17.334Z,69.52
2022-09-22T09:49:44.069Z,68.29
2022-09-22T09:52:12.774Z,67.22
2022-09-22T09:54:41.439Z,62.86
2022-09-22T09:57:09.887Z,59.59
2022-09-22T09:59:57.010Z,59.85
2022-09-22T10:02:37.552Z,60.38
2022-09-22T10:05:04.529Z,61.61
2022-09-22T10:07:41.824Z,60.61
2022-09-22T10:10:37.745Z,57.51
2022-09-22T10:13:04.326Z,61.40
2022-09-22T10:15:36.484Z,60.51
2022-09-22T10:18:23.528Z,61.43
2022-09-22T10:21:23.678Z,59.68
2022-09-22T10:23:51.662Z,61.53
2022-09-22T10:26:27.106Z,60.17
2022-09-22T10:29:12.304Z,56.30
2022-09-22T10:32:02.781Z,58.20
2022-09-22T10:34:36.500Z,58.01
2022-09-22T10:37:10.991Z,54.68
2022-09-22T10:39:47.348Z,58.40
2022-09-22T10:42:25.798Z,53.28
2022-09-22T10:44:53.620Z,57.70
2022-09-22T10:47:40.636Z,54.77
2022-09-22T10:50:27.784Z,54.00
2022-09-22T10:53:12.837Z,56.72
2022-09-22T10:55:52.891Z,54.75
2022-09-22T10:58:27.391Z,53.79
2022-09-22T11:01:09.288Z,52.50
2022-09-22T11:03:56.637Z,55.89
2022-09-22T11:06:49.036Z,54.93
2022-09-22T11:09:34.294Z,49.63
2022-09-22T11:12:19.110Z,51.60
2022-09-22T11:14:51.943Z,56.01
2022-09-22T11:17:37.486Z,49.76
2022-09-22T11:20:23.084Z,50.19
2022-09-22T11:23:00.919Z,50.97
2022-09-22T11:25:55.417Z,49.78
2022-09-22T11:29:00.202Z,50.52
2022-09-22T11:31:26.957Z,50.12
2022-09-22T11:34:19.694Z,49.18
2022-09-22T11:37:27.380Z,51.42
2022-09-22T11:40:17.596Z,49.31
2022-09-22T11:43:04.735Z,51.37
2022-09-22T11:46:06.329Z,52.40
2022-09-22T11:49:02.169Z,49.94
2022-09-22T11:51:37.631Z,47.71
2022-09-22T11:54:30.117Z,50.88
2022-09-22T11:57:04.736Z,52.07
2022-09-22T11:59:59.437Z,50.09
2022-09-22T12:02:38.498Z,47.29
2022-09-22T12:05:13.209Z,49.41
2022-09-22T12:07:49.529Z,47.22
2022-09-22T12:10:30.207Z,47.84
2022-09-22T12:12:57.106Z,45.96
2022-09-22T12:15:29.447Z,47.86
2022-09-22T12:18:29.458Z,46.74
2022-09-22T12:21:06.593Z,48.21
2022-09-22T12:23:40.866Z,49.45
2022-09-22T12:26:13.330Z,49.23
2022-09-22T12:28:43.128Z,46.28
2022-09-22T12:31:16.038Z,48.71
2022-09-22T12:33:52.136Z,49.69
2022-09-22T12:36:36.716Z,47.66
2022-09-22T12:39:24.233Z,45.75
2022-09-22T12:41:57.868Z,47.69
2022-09-22T12:44:28.538Z,46.91
2022-09-22T12:47:01.835Z,44.88
2022-09-22T12:49:28.618Z,47.40
2022-09-22T12:51:55.180Z,46.18
2022-09-22T12:54:21.750Z,46.75
2022-09-22T12:57:20.412Z,45.14
2022-09-22T13:00:05.765Z,45.60
2022-09-22T13:02:41.155Z,42.57
2022-09-22T13:05:10.704Z,42.63
2022-09-22T13:07:42.906Z,45.85
2022-09-22T13:10:21.961Z,47.13
2022-09-22T13:13:03.646Z,47.31
2022-09-22T13:15:51.880Z,47.77
2022-09-22T13:18:39.892Z,46.78
2022-09-22T13:21:12.904Z,45.24
2022-09-22T13:23:51.753Z,46.68
2022-09-22T13:26:40.599Z,43.75
2022-09-22T13:29:19.144Z,43.30
2022-09-22T13:31:54.349Z,41.82
2022-09-22T13:34:35.874Z,44.02
2022-09-22T13:37:14.936Z,41.66
2022-09-22T13:39:47.412Z,42.27
2022-09-22T13:42:31.646Z,43.34
2022-09-22T13:45:07.784Z,44.43
2022-09-22T13:47:35.443Z,43.31
2022-09-22T13:50:09.335Z,42.49
2022-09-22T13:52:39.325Z,43.46
2022-09-22T13:55:26.153Z,43.00
2022-09-22T13:57:56.192Z,45.19
2022-09-22T14:01:01.498Z,46.19
2022-09-22T14:03:27.793Z,44.03
2022-09-22T14:05:55.804Z,43.71
2022-09-22T14:08:29.716Z,45.74
2022-09-22T14:10:58.346Z,47.53
2022-09-22T14:13:41.108Z,45.87
2022-09-22T14:16:28.164Z,45.59
2022-09-22T14:19:08.922Z,45.71
2022-09-22T14:22:06.889Z,41.68
2022-09-22T14:24:37.651Z,41.49
2022-09-22T14:27:07.707Z,41.54
2022-09-22T14:29:37.456Z,42.45
2022-09-22T14:32:11.873Z,42.71
2022-09-22T14:34:39.970Z,42.74
2022-09-22T14:37:20.532Z,42.80
2022-09-22T14:39:48.081Z,43.17
2022-09-22T14:42:27.614Z,43.56
2022-09-22T14:45:14.006Z,42.98
2022-09-22T14:47:40.848Z,43.18
2022-09-22T14:50:27.300Z,41.93
2022-09-22T14:52:54.088Z,42.74
2022-09-22T14:55:36.033Z,41.77
2022-09-22T14:58:07.653Z,43.06
2022-09-22T15:00:54.463Z,40.30
2022-09-22T15:03:29.640Z,40.92
2022-09-22T15:06:12.985Z,40.21
2022-09-22T15:08:42.184Z,43.04
2022-09-22T15:11:09.180Z,43.13
2022-09-22T15:13:40.279Z,44.59
2022-09-22T15:16:40.397Z,40.96
2022-09-22T15:19:11.969Z,40.82
2022-09-22T15:21:47.767Z,40.89
2022-09-22T15:24:22.133Z,43.29
2022-09-22T15:26:49.008Z,42.29
2022-09-22T15:29:17.321Z,41.37
2022-09-22T15:31:43.971Z,43.38
2022-09-22T15:34:12.751Z,42.09
2022-09-22T15:36:45.830Z,40.57
2022-09-22T15:39:23.642Z,40.94
2022-09-22T15:41:51.811Z,44.13
2022-09-22T15:44:18.346Z,43.59
2022-09-22T15:46:51.357Z,43.96
2022-09-22T15:49:29.739Z,42.86
2022-09-22T15:52:11.149Z,42.48
2022-09-22T15:54:43.482Z,43.65
2022-09-22T15:57:11.561Z,44.39
2022-09-22T15:59:38.496Z,46.37
2022-09-22T16:02:10.764Z,46.02
2022-09-22T16:04:37.378Z,45.41
2022-09-22T16:07:08.341Z,44.76
2022-09-22T16:09:35.502Z,45.76
2022-09-22T16:12:03.138Z,46.47
2022-09-22T16:14:29.687Z,47.87
2022-09-22T16:16:56.366Z,46.79
2022-09-22T16:19:23.157Z,47.64
2022-09-22T16:21:52.052Z,47.65
2022-09-22T16:24:19.405Z,48.00
2022-09-22T16:26:45.939Z,49.03
2022-09-22T16:29:12.518Z,48.73
2022-09-22T16:31:39.346Z,46.95
2022-09-22T16:34:07.172Z,48.68
2022-09-22T16:36:36.136Z,48.76
2022-09-22T16:39:04.024Z,48.90
2022-09-22T16:41:32.937Z,49.75
2022-09-22T16:44:00.350Z,50.16
2022-09-22T16:46:33.491Z,50.07
2022-09-22T16:49:06.025Z,50.50
2022-09-22T16:51:38.157Z,50.42
2022-09-22T16:54:06.969Z,51.19
2022-09-22T16:56:35.654Z,51.47
2022-09-22T16:59:03.034Z,51.60
2022-09-22T17:01:32.241Z,51.84
2022-09-22T17:03:59.035Z,52.35
2022-09-22T17:06:26.453Z,52.84
2022-09-22T17:08:56.873Z,53.46
2022-09-22T17:11:29.787Z,53.47
2022-09-22T17:14:01.402Z,53.87
2022-09-22T17:16:34.292Z,56.01
2022-09-22T17:19:09.147Z,55.78
2022-09-22T17:21:37.637Z,57.63
2022-09-22T17:24:06.241Z,59.32
2022-09-22T17:26:38.701Z,60.63
2022-09-22T17:29:06.515Z,60.95
2022-09-22T17:31:35.862Z,61.32
2022-09-22T17:34:02.822Z,61.84
2022-09-22T17:36:29.822Z,63.02
2022-09-22T17:38:58.734Z,62.76
2022-09-22T17:41:28.140Z,63.53
2022-09-22T17:44:01.325Z,63.61
2022-09-22T17:46:31.293Z,63.43
2022-09-22T17:49:17.811Z,63.51
2022-09-22T17:52:07.529Z,63.29
2022-09-22T17:55:00.705Z,64.09
2022-09-22T17:57:29.794Z,65.80
2022-09-22T17:59:57.467Z,66.72
2022-09-22T18:02:27.112Z,67.08
2022-09-22T18:04:54.087Z,66.97
2022-09-22T18:07:25.512Z,67.57
2022-09-22T18:09:55.381Z,68.87
2022-09-22T18:12:24.759Z,68.52
2022-09-22T18:14:53.414Z,70.08
2022-09-22T18:17:23.811Z,71.14
2022-09-22T18:19:54.127Z,70.89
2022-09-22T18:22:22.086Z,72.02
2022-09-22T18:24:50.214Z,71.96
2022-09-22T18:27:19.355Z,73.03
2022-09-22T18:29:53.223Z,72.98
2022-09-22T18:32:20.300Z,73.25
2022-09-22T18:34:47.539Z,73.74
2022-09-22T18:37:15.669Z,73.49
2022-09-22T18:39:45.259Z,74.55
2022-09-22T18:42:12.494Z,74.43
2022-09-22T18:44:39.317Z,74.52
2022-09-22T18:47:06.256Z,74.66
2022-09-22T18:49:35.880Z,77.19
2022-09-22T18:52:05.163Z,77.33
2022-09-22T18:54:31.804Z,76.86
2022-09-22T18:56:58.589Z,76.66
2022-09-22T18:59:27.129Z,76.63
2022-09-22T19:01:54.031Z,77.48
2022-09-22T19:04:23.006Z,78.23
2022-09-22T19:07:10.850Z,79.14
2022-09-22T19:09:37.952Z,79.34
2022-09-22T19:12:07.960Z,79.63
2022-09-22T19:14:39.158Z,79.97
2022-09-22T19:17:07.450Z,79.55
2022-09-22T19:19:37.084Z,80.18
2022-09-22T19:22:09.218Z,80.08
2022-09-22T19:24:37.182Z,80.31
2022-09-22T19:27:04.988Z,80.08
2022-09-22T19:29:32.693Z,79.70
2022-09-22T19:32:00.825Z,79.74
2022-09-22T19:34:28.594Z,79.65
2022-09-22T19:36:55.930Z,79.32
2022-09-22T19:39:23.527Z,79.72
2022-09-22T19:41:51.857Z,79.94
2022-09-22T19:44:20.970Z,80.07
2022-09-22T19:46:48.480Z,80.41
2022-09-22T19:49:15.831Z,80.20
2022-09-22T19:51:42.688Z,80.22
2022-09-22T19:54:09.425Z,80.37
2022-09-22T19:56:36.434Z,80.65
2022-09-22T19:59:04.075Z,80.49
2022-09-22T20:01:33.863Z,80.92
2022-09-22T20:04:00.656Z,80.87
2022-09-22T20:06:28.010Z,81.25
2022-09-22T20:09:02.760Z,81.27
2022-09-22T20:11:40.752Z,82.13
2022-09-22T20:14:22.605Z,82.06
2022-09-22T20:17:01.914Z,82.46
2022-09-22T20:19:31.381Z,82.52
2022-09-22T20:22:16.867Z,82.30
2022-09-22T20:24:45.168Z,82.34
2022-09-22T20:27:11.813Z,82.20
2022-09-22T20:29:38.357Z,82.57
2022-09-22T20:32:05.145Z,82.48
2022-09-22T20:34:31.773Z,82.11
2022-09-22T20:36:58.518Z,82.44
2022-09-22T20:39:25.049Z,83.01
2022-09-22T20:41:52.841Z,83.08
2022-09-22T20:44:19.405Z,82.78
2022-09-22T20:46:47.806Z,82.71
2022-09-22T20:49:14.670Z,83.22
2022-09-22T20:51:42.337Z,82.58
2022-09-22T20:54:09.197Z,82.85
2022-09-22T20:56:39.408Z,82.24
2022-09-22T20:59:08.690Z,83.07
2022-09-22T21:01:35.717Z,83.06
2022-09-22T21:04:03.975Z,83.23
2022-09-22T21:06:31.048Z,83.64
2022-09-22T21:09:16.961Z,83.22
2022-09-22T21:11:44.202Z,82.98
2022-09-22T21:14:11.184Z,83.37
2022-09-22T21:16:39.829Z,83.31
2022-09-22T21:19:07.364Z,83.69
2022-09-22T21:21:38.322Z,83.94
2022-09-22T21:24:05.762Z,84.05
2022-09-22T21:26:33.065Z,84.09
2022-09-22T21:29:00.110Z,84.48
2022-09-22T21:31:27.269Z,84.52
2022-09-22T21:33:54.094Z,84.96
2022-09-22T21:36:24.677Z,84.65
2022-09-22T21:38:57.199Z,84.80
2022-09-22T21:41:27.558Z,84.72
2022-09-22T21:43:55.117Z,84.20
2022-09-22T21:46:28.691Z,84.18
2022-09-22T21:49:01.034Z,84.66
2022-09-22T21:51:36.342Z,84.67
2022-09-22T21:54:04.846Z,84.04
2022-09-22T21:56:33.653Z,83.79
2022-09-22T21:59:02.549Z,83.87
2022-09-22T22:01:35.874Z,84.63
2022-09-22T22:04:07.874Z,85.91
2022-09-22T22:06:40.831Z,85.01
2022-09-22T22:09:11.392Z,85.38
2022-09-22T22:11:54.674Z,84.93
2022-09-22T22:14:22.596Z,84.99
2022-09-22T22:16:51.620Z,84.62
2022-09-22T22:19:20.674Z,84.20
2022-09-22T22:21:50.367Z,84.45
2022-09-22T22:24:39.278Z,83.93
2022-09-22T22:27:09.703Z,83.90
2022-09-22T22:29:38.656Z,83.81
2022-09-22T22:32:06.973Z,83.60
2022-09-22T22:34:34.093Z,83.64
2022-09-22T22:37:01.077Z,83.62
2022-09-22T22:39:28.350Z,83.69
2022-09-22T22:41:55.249Z,84.26
2022-09-22T22:44:22.509Z,85.08
2022-09-22T22:46:49.120Z,84.53
2022-09-22T22:49:15.845Z,85.22
2022-09-22T22:51:43.411Z,85.11
2022-09-22T22:54:11.757Z,85.40
2022-09-22T22:56:43.227Z,85.69
2022-09-22T22:59:11.758Z,85.86
2022-09-22T23:01:40.258Z,85.89
2022-09-22T23:04:11.122Z,85.76
2022-09-22T23:06:40.290Z,86.17
2022-09-22T23:09:08.474Z,85.81
2022-09-22T23:11:37.667Z,86.01
2022-09-22T23:14:07.460Z,86.20
2022-09-22T23:16:37.690Z,86.47
2022-09-22T23:19:07.760Z,86.03
2022-09-22T23:21:35.351Z,86.00
2022-09-22T23:24:02.802Z,86.36
2022-09-22T23:26:29.768Z,86.64
2022-09-22T23:28:58.502Z,86.82
2022-09-22T23:31:25.942Z,86.96
2022-09-22T23:33:52.868Z,87.57
2022-09-22T23:36:24.537Z,87.61
2022-09-22T23:38:56.038Z,87.70
2022-09-22T23:41:22.806Z,88.24
2022-09-22T23:43:49.817Z,88.41
2022-09-22T23:46:16.690Z,87.54
2022-09-22T23:48:43.342Z,88.07
2022-09-22T23:51:10.347Z,88.22
2022-09-22T23:53:37.759Z,88.42
2022-09-22T23:56:06.250Z,88.80
2022-09-22T23:58:33.638Z,87.82
